sensor_id;sensor_type;location;lat;lon;timestamp;P1;durP1;ratioP1;P2;durP2;ratioP2
9834;SDS011;69850;50.942;13.748;2023-08-12T00:01:34;9.55;;;7.47;;
9834;SDS011;69850;50.942;13.748;2023-08-12T00:04:55;12.32;;;7.45;;
9834;SDS011;69850;50.942;13.748;2023-08-12T00:08:16;8.82;;;7.20;;
9834;SDS011;69850;50.942;13.748;2023-08-12T00:11:37;10.70;;;6.78;;
9834;SDS011;69850;50.942;13.748;2023-08-12T00:14:58;9.68;;;6.65;;
9834;SDS011;69850;50.942;13.748;2023-08-12T00:18:19;10.48;;;7.07;;
9834;SDS011;69850;50.942;13.748;2023-08-12T00:21:40;12.65;;;7.40;;
9834;SDS011;69850;50.942;13.748;2023-08-12T00:25:00;12.00;;;7.05;;
9834;SDS011;69850;50.942;13.748;2023-08-12T00:28:22;9.68;;;6.88;;
9834;SDS011;69850;50.942;13.748;2023-08-12T00:31:42;13.25;;;7.72;;
9834;SDS011;69850;50.942;13.748;2023-08-12T00:35:03;11.43;;;6.85;;
9834;SDS011;69850;50.942;13.748;2023-08-12T00:38:24;10.18;;;7.18;;
9834;SDS011;69850;50.942;13.748;2023-08-12T00:41:44;10.10;;;7.00;;
9834;SDS011;69850;50.942;13.748;2023-08-12T00:45:07;12.43;;;7.13;;
9834;SDS011;69850;50.942;13.748;2023-08-12T00:48:29;12.73;;;8.15;;
9834;SDS011;69850;50.942;13.748;2023-08-12T00:51:50;9.70;;;7.53;;
9834;SDS011;69850;50.942;13.748;2023-08-12T00:55:16;12.23;;;6.70;;
9834;SDS011;69850;50.942;13.748;2023-08-12T00:58:37;8.80;;;6.32;;
9834;SDS011;69850;50.942;13.748;2023-08-12T01:01:59;14.70;;;7.60;;
9834;SDS011;69850;50.942;13.748;2023-08-12T01:05:19;8.88;;;6.85;;
9834;SDS011;69850;50.942;13.748;2023-08-12T01:08:40;11.82;;;7.18;;
9834;SDS011;69850;50.942;13.748;2023-08-12T01:12:13;11.43;;;7.03;;
9834;SDS011;69850;50.942;13.748;2023-08-12T01:16:09;8.48;;;6.47;;
9834;SDS011;69850;50.942;13.748;2023-08-12T01:19:34;10.15;;;7.28;;
9834;SDS011;69850;50.942;13.748;2023-08-12T01:23:12;8.98;;;6.75;;
9834;SDS011;69850;50.942;13.748;2023-08-12T01:26:35;9.63;;;7.13;;
9834;SDS011;69850;50.942;13.748;2023-08-12T01:29:56;9.88;;;6.75;;
9834;SDS011;69850;50.942;13.748;2023-08-12T01:33:36;8.48;;;7.53;;
9834;SDS011;69850;50.942;13.748;2023-08-12T01:37:01;10.35;;;7.32;;
9834;SDS011;69850;50.942;13.748;2023-08-12T01:40:26;12.93;;;7.40;;
9834;SDS011;69850;50.942;13.748;2023-08-12T01:43:49;11.00;;;7.05;;
9834;SDS011;69850;50.942;13.748;2023-08-12T01:47:10;9.45;;;7.45;;
9834;SDS011;69850;50.942;13.748;2023-08-12T01:50:31;7.85;;;6.90;;
9834;SDS011;69850;50.942;13.748;2023-08-12T01:53:52;7.85;;;7.00;;
9834;SDS011;69850;50.942;13.748;2023-08-12T01:57:12;11.57;;;7.35;;
9834;SDS011;69850;50.942;13.748;2023-08-12T02:00:33;10.27;;;7.57;;
9834;SDS011;69850;50.942;13.748;2023-08-12T02:03:54;13.00;;;7.45;;
9834;SDS011;69850;50.942;13.748;2023-08-12T02:07:14;12.73;;;7.50;;
9834;SDS011;69850;50.942;13.748;2023-08-12T02:10:35;10.80;;;7.78;;
9834;SDS011;69850;50.942;13.748;2023-08-12T02:13:56;10.15;;;7.35;;
9834;SDS011;69850;50.942;13.748;2023-08-12T02:17:16;10.85;;;7.75;;
9834;SDS011;69850;50.942;13.748;2023-08-12T02:20:37;10.23;;;7.60;;
9834;SDS011;69850;50.942;13.748;2023-08-12T02:23:58;9.93;;;7.50;;
9834;SDS011;69850;50.942;13.748;2023-08-12T02:27:18;9.80;;;7.65;;
9834;SDS011;69850;50.942;13.748;2023-08-12T02:30:41;12.98;;;7.95;;
9834;SDS011;69850;50.942;13.748;2023-08-12T02:34:03;10.05;;;7.40;;
9834;SDS011;69850;50.942;13.748;2023-08-12T02:37:24;11.52;;;7.18;;
9834;SDS011;69850;50.942;13.748;2023-08-12T02:40:47;11.88;;;8.27;;
9834;SDS011;69850;50.942;13.748;2023-08-12T02:44:09;9.98;;;8.38;;
9834;SDS011;69850;50.942;13.748;2023-08-12T02:47:30;13.77;;;8.70;;
9834;SDS011;69850;50.942;13.748;2023-08-12T02:50:50;11.68;;;9.10;;
9834;SDS011;69850;50.942;13.748;2023-08-12T02:54:11;9.75;;;8.75;;
9834;SDS011;69850;50.942;13.748;2023-08-12T02:57:32;10.68;;;8.43;;
9834;SDS011;69850;50.942;13.748;2023-08-12T03:00:54;9.35;;;8.43;;
9834;SDS011;69850;50.942;13.748;2023-08-12T03:04:16;13.63;;;8.38;;
9834;SDS011;69850;50.942;13.748;2023-08-12T03:07:36;10.45;;;7.82;;
9834;SDS011;69850;50.942;13.748;2023-08-12T03:11:00;10.82;;;8.07;;
9834;SDS011;69850;50.942;13.748;2023-08-12T03:14:22;11.77;;;8.95;;
9834;SDS011;69850;50.942;13.748;2023-08-12T03:17:43;11.95;;;9.75;;
9834;SDS011;69850;50.942;13.748;2023-08-12T03:21:06;11.82;;;10.25;;
9834;SDS011;69850;50.942;13.748;2023-08-12T03:24:30;11.02;;;8.80;;
9834;SDS011;69850;50.942;13.748;2023-08-12T03:27:51;11.27;;;9.00;;
9834;SDS011;69850;50.942;13.748;2023-08-12T03:31:12;12.10;;;9.77;;
9834;SDS011;69850;50.942;13.748;2023-08-12T03:34:33;13.63;;;10.27;;
9834;SDS011;69850;50.942;13.748;2023-08-12T03:37:53;13.75;;;10.18;;
9834;SDS011;69850;50.942;13.748;2023-08-12T03:41:15;13.13;;;9.13;;
9834;SDS011;69850;50.942;13.748;2023-08-12T03:44:37;10.45;;;8.90;;
9834;SDS011;69850;50.942;13.748;2023-08-12T03:47:57;11.80;;;9.77;;
9834;SDS011;69850;50.942;13.748;2023-08-12T03:51:18;14.68;;;9.70;;
9834;SDS011;69850;50.942;13.748;2023-08-12T03:54:39;13.15;;;10.43;;
9834;SDS011;69850;50.942;13.748;2023-08-12T03:58:00;10.52;;;8.90;;
9834;SDS011;69850;50.942;13.748;2023-08-12T04:01:22;14.93;;;8.80;;
9834;SDS011;69850;50.942;13.748;2023-08-12T04:04:43;13.95;;;9.50;;
9834;SDS011;69850;50.942;13.748;2023-08-12T04:08:04;13.20;;;10.02;;
9834;SDS011;69850;50.942;13.748;2023-08-12T04:11:25;13.25;;;9.85;;
9834;SDS011;69850;50.942;13.748;2023-08-12T04:14:45;12.35;;;8.80;;
9834;SDS011;69850;50.942;13.748;2023-08-12T04:18:06;9.68;;;8.45;;
9834;SDS011;69850;50.942;13.748;2023-08-12T04:21:28;13.30;;;8.80;;
9834;SDS011;69850;50.942;13.748;2023-08-12T04:24:49;8.68;;;7.72;;
9834;SDS011;69850;50.942;13.748;2023-08-12T04:28:09;8.55;;;7.65;;
9834;SDS011;69850;50.942;13.748;2023-08-12T04:31:31;9.13;;;7.35;;
9834;SDS011;69850;50.942;13.748;2023-08-12T04:34:51;6.95;;;6.28;;
9834;SDS011;69850;50.942;13.748;2023-08-12T04:38:12;6.90;;;5.82;;
9834;SDS011;69850;50.942;13.748;2023-08-12T04:41:35;7.40;;;5.00;;
9834;SDS011;69850;50.942;13.748;2023-08-12T04:44:59;5.10;;;4.28;;
9834;SDS011;69850;50.942;13.748;2023-08-12T04:48:23;5.55;;;3.65;;
9834;SDS011;69850;50.942;13.748;2023-08-12T04:51:43;5.53;;;3.90;;
9834;SDS011;69850;50.942;13.748;2023-08-12T04:55:04;7.15;;;3.50;;
9834;SDS011;69850;50.942;13.748;2023-08-12T04:58:25;4.70;;;3.78;;
9834;SDS011;69850;50.942;13.748;2023-08-12T05:01:46;5.38;;;3.75;;
9834;SDS011;69850;50.942;13.748;2023-08-12T05:05:07;5.55;;;3.50;;
9834;SDS011;69850;50.942;13.748;2023-08-12T05:08:29;5.72;;;3.45;;
9834;SDS011;69850;50.942;13.748;2023-08-12T05:11:50;5.82;;;3.60;;
9834;SDS011;69850;50.942;13.748;2023-08-12T05:15:11;4.85;;;3.53;;
9834;SDS011;69850;50.942;13.748;2023-08-12T05:18:32;5.38;;;3.30;;
9834;SDS011;69850;50.942;13.748;2023-08-12T05:21:54;6.50;;;3.35;;
9834;SDS011;69850;50.942;13.748;2023-08-12T05:25:14;5.22;;;3.63;;
9834;SDS011;69850;50.942;13.748;2023-08-12T05:28:35;6.20;;;3.50;;
9834;SDS011;69850;50.942;13.748;2023-08-12T05:31:56;7.25;;;3.35;;
9834;SDS011;69850;50.942;13.748;2023-08-12T05:35:16;3.78;;;3.30;;
9834;SDS011;69850;50.942;13.748;2023-08-12T05:38:37;8.60;;;3.58;;
9834;SDS011;69850;50.942;13.748;2023-08-12T05:41:58;5.60;;;3.40;;
9834;SDS011;69850;50.942;13.748;2023-08-12T05:45:18;5.97;;;3.42;;
9834;SDS011;69850;50.942;13.748;2023-08-12T05:48:39;4.68;;;3.45;;
9834;SDS011;69850;50.942;13.748;2023-08-12T05:52:00;8.05;;;3.50;;
9834;SDS011;69850;50.942;13.748;2023-08-12T05:55:20;4.75;;;3.15;;
9834;SDS011;69850;50.942;13.748;2023-08-12T05:58:41;6.00;;;3.22;;
9834;SDS011;69850;50.942;13.748;2023-08-12T06:02:02;5.35;;;3.75;;
9834;SDS011;69850;50.942;13.748;2023-08-12T06:05:22;4.70;;;3.40;;
9834;SDS011;69850;50.942;13.748;2023-08-12T06:08:43;6.72;;;3.38;;
9834;SDS011;69850;50.942;13.748;2023-08-12T06:12:04;3.67;;;3.25;;
9834;SDS011;69850;50.942;13.748;2023-08-12T06:15:25;5.65;;;3.47;;
9834;SDS011;69850;50.942;13.748;2023-08-12T06:18:45;4.60;;;3.35;;
9834;SDS011;69850;50.942;13.748;2023-08-12T06:22:06;8.00;;;3.20;;
9834;SDS011;69850;50.942;13.748;2023-08-12T06:25:27;7.93;;;3.63;;
9834;SDS011;69850;50.942;13.748;2023-08-12T06:28:47;4.38;;;3.20;;
9834;SDS011;69850;50.942;13.748;2023-08-12T06:32:08;5.22;;;3.22;;
9834;SDS011;69850;50.942;13.748;2023-08-12T06:35:29;3.70;;;3.28;;
9834;SDS011;69850;50.942;13.748;2023-08-12T06:38:49;6.55;;;3.83;;
9834;SDS011;69850;50.942;13.748;2023-08-12T06:42:10;5.88;;;3.60;;
9834;SDS011;69850;50.942;13.748;2023-08-12T06:45:31;6.72;;;3.70;;
9834;SDS011;69850;50.942;13.748;2023-08-12T06:48:51;5.72;;;3.80;;
9834;SDS011;69850;50.942;13.748;2023-08-12T06:52:12;7.93;;;3.80;;
9834;SDS011;69850;50.942;13.748;2023-08-12T06:55:33;5.63;;;3.78;;
9834;SDS011;69850;50.942;13.748;2023-08-12T06:58:53;7.70;;;3.70;;
9834;SDS011;69850;50.942;13.748;2023-08-12T07:02:14;6.63;;;3.80;;
9834;SDS011;69850;50.942;13.748;2023-08-12T07:05:35;6.85;;;4.35;;
9834;SDS011;69850;50.942;13.748;2023-08-12T07:08:55;5.85;;;4.05;;
9834;SDS011;69850;50.942;13.748;2023-08-12T07:12:16;5.88;;;3.90;;
9834;SDS011;69850;50.942;13.748;2023-08-12T07:15:37;6.30;;;3.90;;
9834;SDS011;69850;50.942;13.748;2023-08-12T07:18:57;9.43;;;3.92;;
9834;SDS011;69850;50.942;13.748;2023-08-12T07:22:18;4.55;;;3.90;;
9834;SDS011;69850;50.942;13.748;2023-08-12T07:25:40;8.20;;;3.80;;
9834;SDS011;69850;50.942;13.748;2023-08-12T07:29:01;7.10;;;4.10;;
9834;SDS011;69850;50.942;13.748;2023-08-12T07:32:21;7.63;;;4.20;;
9834;SDS011;69850;50.942;13.748;2023-08-12T07:35:42;5.93;;;4.18;;
9834;SDS011;69850;50.942;13.748;2023-08-12T07:39:03;6.18;;;3.83;;
9834;SDS011;69850;50.942;13.748;2023-08-12T07:42:23;9.00;;;4.18;;
9834;SDS011;69850;50.942;13.748;2023-08-12T07:45:44;7.55;;;4.28;;
9834;SDS011;69850;50.942;13.748;2023-08-12T07:49:05;5.95;;;3.78;;
9834;SDS011;69850;50.942;13.748;2023-08-12T07:52:27;6.80;;;3.67;;
9834;SDS011;69850;50.942;13.748;2023-08-12T07:55:47;5.22;;;4.10;;
9834;SDS011;69850;50.942;13.748;2023-08-12T07:59:08;7.78;;;4.18;;
9834;SDS011;69850;50.942;13.748;2023-08-12T08:02:29;6.22;;;3.70;;
9834;SDS011;69850;50.942;13.748;2023-08-12T08:05:49;4.32;;;3.72;;
9834;SDS011;69850;50.942;13.748;2023-08-12T08:09:10;7.57;;;4.00;;
9834;SDS011;69850;50.942;13.748;2023-08-12T08:12:31;6.88;;;3.92;;
9834;SDS011;69850;50.942;13.748;2023-08-12T08:15:51;6.05;;;3.95;;
9834;SDS011;69850;50.942;13.748;2023-08-12T08:19:12;5.38;;;3.65;;
9834;SDS011;69850;50.942;13.748;2023-08-12T08:22:33;6.20;;;3.55;;
9834;SDS011;69850;50.942;13.748;2023-08-12T08:25:54;4.90;;;3.58;;
9834;SDS011;69850;50.942;13.748;2023-08-12T08:29:14;4.07;;;3.25;;
9834;SDS011;69850;50.942;13.748;2023-08-12T08:32:35;4.13;;;1.90;;
9834;SDS011;69850;50.942;13.748;2023-08-12T08:35:56;4.57;;;3.15;;
9834;SDS011;69850;50.942;13.748;2023-08-12T08:39:16;3.38;;;1.80;;
9834;SDS011;69850;50.942;13.748;2023-08-12T08:42:37;2.42;;;1.65;;
9834;SDS011;69850;50.942;13.748;2023-08-12T08:45:58;3.17;;;1.80;;
9834;SDS011;69850;50.942;13.748;2023-08-12T08:49:19;2.33;;;1.90;;
9834;SDS011;69850;50.942;13.748;2023-08-12T08:52:40;4.68;;;1.85;;
9834;SDS011;69850;50.942;13.748;2023-08-12T08:56:07;3.35;;;1.85;;
9834;SDS011;69850;50.942;13.748;2023-08-12T08:59:28;2.00;;;1.77;;
9834;SDS011;69850;50.942;13.748;2023-08-12T09:02:49;4.82;;;1.67;;
9834;SDS011;69850;50.942;13.748;2023-08-12T09:06:10;1.85;;;1.50;;
9834;SDS011;69850;50.942;13.748;2023-08-12T09:09:31;3.30;;;2.10;;
9834;SDS011;69850;50.942;13.748;2023-08-12T09:12:55;2.13;;;1.77;;
9834;SDS011;69850;50.942;13.748;2023-08-12T09:16:16;2.25;;;2.00;;
9834;SDS011;69850;50.942;13.748;2023-08-12T09:19:37;2.67;;;1.75;;
9834;SDS011;69850;50.942;13.748;2023-08-12T09:22:58;4.60;;;1.98;;
9834;SDS011;69850;50.942;13.748;2023-08-12T09:26:19;2.08;;;1.88;;
9834;SDS011;69850;50.942;13.748;2023-08-12T09:29:41;3.53;;;1.88;;
9834;SDS011;69850;50.942;13.748;2023-08-12T09:33:02;1.92;;;1.80;;
9834;SDS011;69850;50.942;13.748;2023-08-12T09:36:28;3.97;;;1.67;;
9834;SDS011;69850;50.942;13.748;2023-08-12T09:39:51;1.90;;;1.80;;
9834;SDS011;69850;50.942;13.748;2023-08-12T09:43:12;2.00;;;1.60;;
9834;SDS011;69850;50.942;13.748;2023-08-12T09:46:33;2.70;;;1.60;;
9834;SDS011;69850;50.942;13.748;2023-08-12T09:49:54;2.00;;;1.80;;
9834;SDS011;69850;50.942;13.748;2023-08-12T09:53:15;2.53;;;1.85;;
9834;SDS011;69850;50.942;13.748;2023-08-12T09:56:36;3.20;;;2.00;;
9834;SDS011;69850;50.942;13.748;2023-08-12T09:59:57;3.15;;;1.80;;
9834;SDS011;69850;50.942;13.748;2023-08-12T10:03:18;2.20;;;1.73;;
9834;SDS011;69850;50.942;13.748;2023-08-12T10:06:43;3.97;;;1.63;;
9834;SDS011;69850;50.942;13.748;2023-08-12T10:10:04;1.45;;;1.35;;
9834;SDS011;69850;50.942;13.748;2023-08-12T10:13:25;2.20;;;1.52;;
9834;SDS011;69850;50.942;13.748;2023-08-12T10:16:46;3.35;;;1.67;;
9834;SDS011;69850;50.942;13.748;2023-08-12T10:20:07;3.28;;;1.60;;
9834;SDS011;69850;50.942;13.748;2023-08-12T10:23:28;2.70;;;1.70;;
9834;SDS011;69850;50.942;13.748;2023-08-12T10:26:50;1.92;;;1.80;;
9834;SDS011;69850;50.942;13.748;2023-08-12T10:30:13;1.77;;;1.67;;
9834;SDS011;69850;50.942;13.748;2023-08-12T10:33:37;2.15;;;1.88;;
9834;SDS011;69850;50.942;13.748;2023-08-12T10:37:01;5.07;;;2.08;;
9834;SDS011;69850;50.942;13.748;2023-08-12T10:40:22;2.65;;;2.05;;
9834;SDS011;69850;50.942;13.748;2023-08-12T10:43:53;2.35;;;1.90;;
9834;SDS011;69850;50.942;13.748;2023-08-12T10:47:21;3.42;;;2.22;;
9834;SDS011;69850;50.942;13.748;2023-08-12T10:50:46;4.90;;;2.20;;
9834;SDS011;69850;50.942;13.748;2023-08-12T10:54:15;2.92;;;2.13;;
9834;SDS011;69850;50.942;13.748;2023-08-12T10:57:42;4.60;;;2.10;;
9834;SDS011;69850;50.942;13.748;2023-08-12T11:01:03;2.50;;;2.30;;
9834;SDS011;69850;50.942;13.748;2023-08-12T11:04:39;3.15;;;2.20;;
9834;SDS011;69850;50.942;13.748;2023-08-12T11:08:00;4.53;;;2.25;;
9834;SDS011;69850;50.942;13.748;2023-08-12T11:11:23;4.15;;;2.42;;
9834;SDS011;69850;50.942;13.748;2023-08-12T11:14:47;4.20;;;2.50;;
9834;SDS011;69850;50.942;13.748;2023-08-12T11:18:13;3.70;;;2.40;;
9834;SDS011;69850;50.942;13.748;2023-08-12T11:21:36;4.32;;;2.53;;
9834;SDS011;69850;50.942;13.748;2023-08-12T11:24:57;3.65;;;2.40;;
9834;SDS011;69850;50.942;13.748;2023-08-12T11:28:18;5.75;;;2.97;;
9834;SDS011;69850;50.942;13.748;2023-08-12T11:31:41;5.22;;;2.90;;
9834;SDS011;69850;50.942;13.748;2023-08-12T11:35:02;4.30;;;2.67;;
9834;SDS011;69850;50.942;13.748;2023-08-12T11:38:24;4.57;;;2.63;;
9834;SDS011;69850;50.942;13.748;2023-08-12T11:41:44;6.05;;;2.67;;
9834;SDS011;69850;50.942;13.748;2023-08-12T11:45:05;3.08;;;2.78;;
9834;SDS011;69850;50.942;13.748;2023-08-12T11:48:27;4.03;;;2.90;;
9834;SDS011;69850;50.942;13.748;2023-08-12T11:51:47;5.55;;;2.60;;
9834;SDS011;69850;50.942;13.748;2023-08-12T11:55:10;6.03;;;3.00;;
9834;SDS011;69850;50.942;13.748;2023-08-12T11:58:35;5.70;;;2.78;;
9834;SDS011;69850;50.942;13.748;2023-08-12T12:01:56;4.82;;;2.70;;
9834;SDS011;69850;50.942;13.748;2023-08-12T12:05:18;4.60;;;2.92;;
9834;SDS011;69850;50.942;13.748;2023-08-12T12:08:41;6.30;;;3.00;;
9834;SDS011;69850;50.942;13.748;2023-08-12T12:12:02;6.28;;;3.00;;
9834;SDS011;69850;50.942;13.748;2023-08-12T12:15:23;8.15;;;3.00;;
9834;SDS011;69850;50.942;13.748;2023-08-12T12:18:44;8.02;;;2.72;;
9834;SDS011;69850;50.942;13.748;2023-08-12T12:22:04;7.65;;;3.10;;
9834;SDS011;69850;50.942;13.748;2023-08-12T12:25:25;4.53;;;2.78;;
9834;SDS011;69850;50.942;13.748;2023-08-12T12:28:46;5.45;;;2.90;;
9834;SDS011;69850;50.942;13.748;2023-08-12T12:32:07;3.22;;;2.92;;
9834;SDS011;69850;50.942;13.748;2023-08-12T12:35:27;4.15;;;2.95;;
9834;SDS011;69850;50.942;13.748;2023-08-12T12:38:48;7.13;;;2.92;;
9834;SDS011;69850;50.942;13.748;2023-08-12T12:42:09;4.10;;;3.25;;
9834;SDS011;69850;50.942;13.748;2023-08-12T12:45:30;6.30;;;3.38;;
9834;SDS011;69850;50.942;13.748;2023-08-12T12:48:51;4.80;;;3.25;;
9834;SDS011;69850;50.942;13.748;2023-08-12T12:52:12;8.20;;;3.20;;
9834;SDS011;69850;50.942;13.748;2023-08-12T12:55:32;4.75;;;3.13;;
9834;SDS011;69850;50.942;13.748;2023-08-12T12:58:53;3.42;;;3.03;;
9834;SDS011;69850;50.942;13.748;2023-08-12T13:02:14;7.90;;;3.20;;
9834;SDS011;69850;50.942;13.748;2023-08-12T13:05:34;4.85;;;3.45;;
9834;SDS011;69850;50.942;13.748;2023-08-12T13:08:55;6.13;;;3.30;;
9834;SDS011;69850;50.942;13.748;2023-08-12T13:12:16;5.25;;;3.50;;
9834;SDS011;69850;50.942;13.748;2023-08-12T13:15:36;4.75;;;3.63;;
9834;SDS011;69850;50.942;13.748;2023-08-12T13:18:57;6.25;;;3.40;;
9834;SDS011;69850;50.942;13.748;2023-08-12T13:22:21;7.80;;;3.63;;
9834;SDS011;69850;50.942;13.748;2023-08-12T13:25:41;4.75;;;3.53;;
9834;SDS011;69850;50.942;13.748;2023-08-12T13:29:02;6.05;;;3.33;;
9834;SDS011;69850;50.942;13.748;2023-08-12T13:32:23;5.20;;;3.42;;
9834;SDS011;69850;50.942;13.748;2023-08-12T13:35:44;4.90;;;3.58;;
9834;SDS011;69850;50.942;13.748;2023-08-12T13:39:05;6.07;;;3.85;;
9834;SDS011;69850;50.942;13.748;2023-08-12T13:42:25;4.97;;;3.60;;
9834;SDS011;69850;50.942;13.748;2023-08-12T13:45:46;6.93;;;3.70;;
9834;SDS011;69850;50.942;13.748;2023-08-12T13:49:07;7.65;;;3.78;;
9834;SDS011;69850;50.942;13.748;2023-08-12T13:52:27;6.05;;;3.63;;
9834;SDS011;69850;50.942;13.748;2023-08-12T13:55:48;5.00;;;3.50;;
9834;SDS011;69850;50.942;13.748;2023-08-12T13:59:08;11.88;;;3.92;;
9834;SDS011;69850;50.942;13.748;2023-08-12T14:02:29;7.72;;;3.42;;
9834;SDS011;69850;50.942;13.748;2023-08-12T14:05:50;4.22;;;3.58;;
9834;SDS011;69850;50.942;13.748;2023-08-12T14:09:11;7.15;;;3.33;;
9834;SDS011;69850;50.942;13.748;2023-08-12T14:12:34;11.38;;;3.65;;
9834;SDS011;69850;50.942;13.748;2023-08-12T14:15:54;5.78;;;3.40;;
9834;SDS011;69850;50.942;13.748;2023-08-12T14:19:15;6.57;;;3.38;;
9834;SDS011;69850;50.942;13.748;2023-08-12T14:22:37;6.15;;;3.53;;
9834;SDS011;69850;50.942;13.748;2023-08-12T14:25:57;5.60;;;3.72;;
9834;SDS011;69850;50.942;13.748;2023-08-12T14:29:18;5.15;;;3.70;;
9834;SDS011;69850;50.942;13.748;2023-08-12T14:32:38;7.55;;;3.60;;
9834;SDS011;69850;50.942;13.748;2023-08-12T14:35:59;6.28;;;3.67;;
9834;SDS011;69850;50.942;13.748;2023-08-12T14:39:20;5.75;;;4.10;;
9834;SDS011;69850;50.942;13.748;2023-08-12T14:42:42;5.38;;;3.92;;
9834;SDS011;69850;50.942;13.748;2023-08-12T14:46:02;7.25;;;3.58;;
9834;SDS011;69850;50.942;13.748;2023-08-12T14:49:23;6.82;;;3.60;;
9834;SDS011;69850;50.942;13.748;2023-08-12T14:52:44;5.70;;;3.83;;
9834;SDS011;69850;50.942;13.748;2023-08-12T14:56:04;6.25;;;3.55;;
9834;SDS011;69850;50.942;13.748;2023-08-12T14:59:25;5.28;;;3.30;;
9834;SDS011;69850;50.942;13.748;2023-08-12T15:02:46;7.28;;;3.65;;
9834;SDS011;69850;50.942;13.748;2023-08-12T15:06:06;10.80;;;3.72;;
9834;SDS011;69850;50.942;13.748;2023-08-12T15:09:27;5.35;;;4.00;;
9834;SDS011;69850;50.942;13.748;2023-08-12T15:12:47;6.13;;;3.60;;
9834;SDS011;69850;50.942;13.748;2023-08-12T15:16:08;4.20;;;3.80;;
9834;SDS011;69850;50.942;13.748;2023-08-12T15:19:31;3.70;;;3.40;;
9834;SDS011;69850;50.942;13.748;2023-08-12T15:22:51;7.68;;;3.55;;
9834;SDS011;69850;50.942;13.748;2023-08-12T15:26:12;6.32;;;3.63;;
9834;SDS011;69850;50.942;13.748;2023-08-12T15:29:33;4.93;;;3.50;;
9834;SDS011;69850;50.942;13.748;2023-08-12T15:32:54;6.50;;;3.55;;
9834;SDS011;69850;50.942;13.748;2023-08-12T15:36:14;9.50;;;3.40;;
9834;SDS011;69850;50.942;13.748;2023-08-12T15:39:35;7.07;;;3.38;;
9834;SDS011;69850;50.942;13.748;2023-08-12T15:42:56;6.20;;;3.22;;
9834;SDS011;69850;50.942;13.748;2023-08-12T15:46:17;9.57;;;3.63;;
9834;SDS011;69850;50.942;13.748;2023-08-12T15:49:37;6.28;;;3.40;;
9834;SDS011;69850;50.942;13.748;2023-08-12T15:52:58;67.68;;;44.15;;
9834;SDS011;69850;50.942;13.748;2023-08-12T15:56:18;54.25;;;33.03;;
9834;SDS011;69850;50.942;13.748;2023-08-12T15:59:41;49.50;;;31.63;;
9834;SDS011;69850;50.942;13.748;2023-08-12T16:03:03;47.70;;;30.40;;
9834;SDS011;69850;50.942;13.748;2023-08-12T16:06:24;6.85;;;3.90;;
9834;SDS011;69850;50.942;13.748;2023-08-12T16:09:46;6.72;;;3.67;;
9834;SDS011;69850;50.942;13.748;2023-08-12T16:13:06;7.22;;;3.30;;
9834;SDS011;69850;50.942;13.748;2023-08-12T16:16:27;12.07;;;5.45;;
9834;SDS011;69850;50.942;13.748;2023-08-12T16:19:48;10.43;;;6.30;;
9834;SDS011;69850;50.942;13.748;2023-08-12T16:23:08;9.23;;;4.28;;
9834;SDS011;69850;50.942;13.748;2023-08-12T16:26:29;8.75;;;4.55;;
9834;SDS011;69850;50.942;13.748;2023-08-12T16:29:49;9.23;;;4.30;;
9834;SDS011;69850;50.942;13.748;2023-08-12T16:33:11;7.22;;;4.30;;
9834;SDS011;69850;50.942;13.748;2023-08-12T16:36:31;8.52;;;4.03;;
9834;SDS011;69850;50.942;13.748;2023-08-12T16:39:52;10.32;;;4.15;;
9834;SDS011;69850;50.942;13.748;2023-08-12T16:43:13;20.58;;;5.32;;
9834;SDS011;69850;50.942;13.748;2023-08-12T16:46:33;7.75;;;4.35;;
9834;SDS011;69850;50.942;13.748;2023-08-12T16:49:54;5.63;;;3.33;;
9834;SDS011;69850;50.942;13.748;2023-08-12T16:53:15;5.47;;;3.10;;
9834;SDS011;69850;50.942;13.748;2023-08-12T16:56:35;13.43;;;2.25;;
9834;SDS011;69850;50.942;13.748;2023-08-12T16:59:56;9.05;;;2.83;;
9834;SDS011;69850;50.942;13.748;2023-08-12T17:03:17;6.95;;;3.33;;
9834;SDS011;69850;50.942;13.748;2023-08-12T17:06:38;5.78;;;3.70;;
9834;SDS011;69850;50.942;13.748;2023-08-12T17:10:00;6.35;;;2.42;;
9834;SDS011;69850;50.942;13.748;2023-08-12T17:13:20;8.55;;;3.20;;
9834;SDS011;69850;50.942;13.748;2023-08-12T17:16:41;6.82;;;2.92;;
9834;SDS011;69850;50.942;13.748;2023-08-12T17:20:02;4.25;;;2.80;;
9834;SDS011;69850;50.942;13.748;2023-08-12T17:23:23;5.40;;;2.80;;
9834;SDS011;69850;50.942;13.748;2023-08-12T17:26:44;5.32;;;2.85;;
9834;SDS011;69850;50.942;13.748;2023-08-12T17:30:05;6.75;;;2.60;;
9834;SDS011;69850;50.942;13.748;2023-08-12T17:33:26;6.13;;;2.70;;
9834;SDS011;69850;50.942;13.748;2023-08-12T17:36:47;5.97;;;2.53;;
9834;SDS011;69850;50.942;13.748;2023-08-12T17:40:08;5.07;;;2.45;;
9834;SDS011;69850;50.942;13.748;2023-08-12T17:43:30;5.22;;;2.60;;
9834;SDS011;69850;50.942;13.748;2023-08-12T17:46:51;4.60;;;3.03;;
9834;SDS011;69850;50.942;13.748;2023-08-12T17:50:12;5.53;;;2.85;;
9834;SDS011;69850;50.942;13.748;2023-08-12T17:53:33;5.72;;;2.53;;
9834;SDS011;69850;50.942;13.748;2023-08-12T17:56:54;6.15;;;2.70;;
9834;SDS011;69850;50.942;13.748;2023-08-12T18:00:15;5.15;;;2.40;;
9834;SDS011;69850;50.942;13.748;2023-08-12T18:03:38;3.50;;;2.30;;
9834;SDS011;69850;50.942;13.748;2023-08-12T18:06:59;4.78;;;1.90;;
9834;SDS011;69850;50.942;13.748;2023-08-12T18:10:19;2.63;;;2.10;;
9834;SDS011;69850;50.942;13.748;2023-08-12T18:13:40;1.95;;;1.58;;
9834;SDS011;69850;50.942;13.748;2023-08-12T18:17:01;3.70;;;1.70;;
9834;SDS011;69850;50.942;13.748;2023-08-12T18:20:21;2.30;;;1.33;;
9834;SDS011;69850;50.942;13.748;2023-08-12T18:23:42;4.30;;;1.33;;
9834;SDS011;69850;50.942;13.748;2023-08-12T18:27:03;2.42;;;1.40;;
9834;SDS011;69850;50.942;13.748;2023-08-12T18:30:23;3.55;;;1.27;;
9834;SDS011;69850;50.942;13.748;2023-08-12T18:33:44;2.33;;;1.40;;
9834;SDS011;69850;50.942;13.748;2023-08-12T18:37:05;2.35;;;1.55;;
9834;SDS011;69850;50.942;13.748;2023-08-12T18:40:25;3.58;;;1.30;;
9834;SDS011;69850;50.942;13.748;2023-08-12T18:43:46;2.03;;;1.08;;
9834;SDS011;69850;50.942;13.748;2023-08-12T18:47:07;3.03;;;2.33;;
9834;SDS011;69850;50.942;13.748;2023-08-12T18:50:27;4.15;;;2.90;;
9834;SDS011;69850;50.942;13.748;2023-08-12T18:53:48;5.47;;;3.42;;
9834;SDS011;69850;50.942;13.748;2023-08-12T18:57:09;5.80;;;2.22;;
9834;SDS011;69850;50.942;13.748;2023-08-12T19:00:29;5.18;;;2.45;;
9834;SDS011;69850;50.942;13.748;2023-08-12T19:03:50;3.90;;;1.80;;
9834;SDS011;69850;50.942;13.748;2023-08-12T19:07:10;2.38;;;1.70;;
9834;SDS011;69850;50.942;13.748;2023-08-12T19:10:31;2.90;;;1.42;;
9834;SDS011;69850;50.942;13.748;2023-08-12T19:13:52;4.63;;;1.75;;
9834;SDS011;69850;50.942;13.748;2023-08-12T19:17:12;4.20;;;1.50;;
9834;SDS011;69850;50.942;13.748;2023-08-12T19:20:33;2.67;;;1.50;;
9834;SDS011;69850;50.942;13.748;2023-08-12T19:23:54;6.78;;;1.88;;
9834;SDS011;69850;50.942;13.748;2023-08-12T19:27:14;2.85;;;0.95;;
9834;SDS011;69850;50.942;13.748;2023-08-12T19:30:35;3.30;;;0.98;;
9834;SDS011;69850;50.942;13.748;2023-08-12T19:33:56;2.97;;;1.10;;
9834;SDS011;69850;50.942;13.748;2023-08-12T19:37:18;2.22;;;1.00;;
9834;SDS011;69850;50.942;13.748;2023-08-12T19:40:39;1.58;;;1.00;;
9834;SDS011;69850;50.942;13.748;2023-08-12T19:43:59;4.68;;;1.00;;
9834;SDS011;69850;50.942;13.748;2023-08-12T19:47:20;2.00;;;1.08;;
9834;SDS011;69850;50.942;13.748;2023-08-12T19:50:41;2.28;;;0.80;;
9834;SDS011;69850;50.942;13.748;2023-08-12T19:54:03;1.98;;;0.90;;
9834;SDS011;69850;50.942;13.748;2023-08-12T19:57:25;0.90;;;0.80;;
9834;SDS011;69850;50.942;13.748;2023-08-12T20:00:47;1.30;;;0.90;;
9834;SDS011;69850;50.942;13.748;2023-08-12T20:04:07;2.15;;;0.90;;
9834;SDS011;69850;50.942;13.748;2023-08-12T20:07:28;1.48;;;1.10;;
9834;SDS011;69850;50.942;13.748;2023-08-12T20:10:52;4.28;;;1.15;;